sensor_id;sensor_type;location;lat;lon;timestamp;pressure;altitude;pressure_sealevel;temperature;humidity
73566;BME280;61846;52.970;-3.168;2023-08-08T00:00:11;100705.80;;;15.06;42.98
73566;BME280;61846;52.970;-3.168;2023-08-08T00:02:36;100707.24;;;15.77;42.21
73566;BME280;61846;52.970;-3.168;2023-08-08T00:05:01;100701.07;;;16.30;41.78
73566;BME280;61846;52.970;-3.168;2023-08-08T00:07:27;100703.24;;;15.60;42.62
73566;BME280;61846;52.970;-3.168;2023-08-08T00:09:52;100696.26;;;15.77;42.06
73566;BME280;61846;52.970;-3.168;2023-08-08T00:12:17;100697.80;;;15.65;42.35
73566;BME280;61846;52.970;-3.168;2023-08-08T00:14:43;100701.81;;;15.77;42.72
73566;BME280;61846;52.970;-3.168;2023-08-08T00:17:08;100697.63;;;15.92;42.16
73566;BME280;61846;52.970;-3.168;2023-08-08T00:19:34;100696.76;;;15.09;43.27
73566;BME280;61846;52.970;-3.168;2023-08-08T00:21:59;100692.44;;;15.82;42.37
73566;BME280;61846;52.970;-3.168;2023-08-08T00:24:25;100695.88;;;15.65;43.09
73566;BME280;61846;52.970;-3.168;2023-08-08T00:26:50;100696.33;;;15.40;42.59
73566;BME280;61846;52.970;-3.168;2023-08-08T00:29:16;100697.97;;;15.58;43.23
73566;BME280;61846;52.970;-3.168;2023-08-08T00:31:41;100698.23;;;16.16;41.82
73566;BME280;61846;52.970;-3.168;2023-08-08T00:34:07;100696.35;;;16.23;41.80
73566;BME280;61846;52.970;-3.168;2023-08-08T00:36:33;100695.64;;;15.99;42.36
73566;BME280;61846;52.970;-3.168;2023-08-08T00:38:58;100691.83;;;16.23;42.32
73566;BME280;61846;52.970;-3.168;2023-08-08T00:41:23;100692.41;;;16.03;42.55
73566;BME280;61846;52.970;-3.168;2023-08-08T00:43:49;100683.35;;;16.45;42.18
73566;BME280;61846;52.970;-3.168;2023-08-08T00:46:15;100681.38;;;16.38;42.26
73566;BME280;61846;52.970;-3.168;2023-08-08T00:48:40;100680.41;;;16.22;42.36
73566;BME280;61846;52.970;-3.168;2023-08-08T00:51:05;100672.61;;;15.18;44.29
73566;BME280;61846;52.970;-3.168;2023-08-08T00:53:31;100675.89;;;14.83;45.30
73566;BME280;61846;52.970;-3.168;2023-08-08T00:55:56;100674.78;;;15.17;45.76
73566;BME280;61846;52.970;-3.168;2023-08-08T00:58:22;100668.85;;;14.26;47.17
73566;BME280;61846;52.970;-3.168;2023-08-08T01:00:47;100668.38;;;13.47;49.44
73566;BME280;61846;52.970;-3.168;2023-08-08T01:03:12;100663.80;;;14.12;48.40
73566;BME280;61846;52.970;-3.168;2023-08-08T01:05:43;100657.04;;;13.96;49.26
73566;BME280;61846;52.970;-3.168;2023-08-08T01:08:04;100657.01;;;14.07;49.00
73566;BME280;61846;52.970;-3.168;2023-08-08T01:10:33;100648.35;;;13.66;49.86
73566;BME280;61846;52.970;-3.168;2023-08-08T01:12:58;100649.31;;;13.56;50.38
73566;BME280;61846;52.970;-3.168;2023-08-08T01:15:20;100642.68;;;14.54;48.82
73566;BME280;61846;52.970;-3.168;2023-08-08T01:17:46;100640.66;;;14.96;47.91
73566;BME280;61846;52.970;-3.168;2023-08-08T01:20:12;100637.31;;;15.03;47.15
73566;BME280;61846;52.970;-3.168;2023-08-08T01:22:39;100629.84;;;14.56;47.37
73566;BME280;61846;52.970;-3.168;2023-08-08T01:25:02;100626.41;;;15.09;47.03
73566;BME280;61846;52.970;-3.168;2023-08-08T01:27:28;100621.29;;;15.01;47.06
73566;BME280;61846;52.970;-3.168;2023-08-08T01:29:53;100620.74;;;15.01;47.76
73566;BME280;61846;52.970;-3.168;2023-08-08T01:32:18;100620.63;;;15.33;46.97
73566;BME280;61846;52.970;-3.168;2023-08-08T01:34:44;100623.86;;;15.79;46.14
73566;BME280;61846;52.970;-3.168;2023-08-08T01:37:13;100621.58;;;15.06;46.98
73566;BME280;61846;52.970;-3.168;2023-08-08T01:39:35;100620.25;;;15.45;46.67
73566;BME280;61846;52.970;-3.168;2023-08-08T01:42:01;100617.28;;;14.98;46.51
73566;BME280;61846;52.970;-3.168;2023-08-08T01:44:26;100610.81;;;15.59;45.94
73566;BME280;61846;52.970;-3.168;2023-08-08T01:46:52;100606.17;;;16.15;44.79
73566;BME280;61846;52.970;-3.168;2023-08-08T01:49:17;100599.86;;;16.37;44.42
73566;BME280;61846;52.970;-3.168;2023-08-08T01:51:42;100602.34;;;15.57;45.74
73566;BME280;61846;52.970;-3.168;2023-08-08T01:54:08;100597.63;;;16.02;45.01
73566;BME280;61846;52.970;-3.168;2023-08-08T01:56:33;100596.99;;;15.94;44.85
73566;BME280;61846;52.970;-3.168;2023-08-08T01:58:58;100593.37;;;15.68;45.83
73566;BME280;61846;52.970;-3.168;2023-08-08T02:01:24;100594.14;;;15.05;46.98
73566;BME280;61846;52.970;-3.168;2023-08-08T02:03:50;100594.85;;;15.87;45.58
73566;BME280;61846;52.970;-3.168;2023-08-08T02:06:15;100603.12;;;15.58;46.20
73566;BME280;61846;52.970;-3.168;2023-08-08T02:08:41;100598.32;;;15.76;46.01
73566;BME280;61846;52.970;-3.168;2023-08-08T02:11:06;100594.65;;;16.21;45.07
73566;BME280;61846;52.970;-3.168;2023-08-08T02:13:31;100597.53;;;16.47;43.97
73566;BME280;61846;52.970;-3.168;2023-08-08T02:15:57;100604.76;;;16.44;43.69
73566;BME280;61846;52.970;-3.168;2023-08-08T02:18:23;100605.10;;;16.41;43.56
73566;BME280;61846;52.970;-3.168;2023-08-08T02:20:48;100600.72;;;15.90;44.53
73566;BME280;61846;52.970;-3.168;2023-08-08T02:23:13;100598.65;;;16.61;43.89
73566;BME280;61846;52.970;-3.168;2023-08-08T02:25:39;100595.86;;;16.30;43.89
73566;BME280;61846;52.970;-3.168;2023-08-08T02:28:05;100596.48;;;16.60;43.47
73566;BME280;61846;52.970;-3.168;2023-08-08T02:30:30;100592.82;;;16.58;43.16
73566;BME280;61846;52.970;-3.168;2023-08-08T02:32:56;100591.80;;;16.46;43.59
73566;BME280;61846;52.970;-3.168;2023-08-08T02:35:21;100593.41;;;16.09;44.24
73566;BME280;61846;52.970;-3.168;2023-08-08T02:37:46;100597.40;;;16.35;44.16
73566;BME280;61846;52.970;-3.168;2023-08-08T02:40:12;100603.76;;;16.05;44.82
73566;BME280;61846;52.970;-3.168;2023-08-08T02:42:37;100601.46;;;16.14;45.01
73566;BME280;61846;52.970;-3.168;2023-08-08T02:45:03;100601.71;;;16.37;44.68
73566;BME280;61846;52.970;-3.168;2023-08-08T02:47:28;100605.57;;;15.64;45.59
73566;BME280;61846;52.970;-3.168;2023-08-08T02:49:54;100605.28;;;16.31;44.93
73566;BME280;61846;52.970;-3.168;2023-08-08T02:52:19;100601.13;;;16.26;44.26
73566;BME280;61846;52.970;-3.168;2023-08-08T02:54:45;100596.83;;;16.62;43.73
73566;BME280;61846;52.970;-3.168;2023-08-08T02:57:10;100591.01;;;16.59;43.21
73566;BME280;61846;52.970;-3.168;2023-08-08T02:59:36;100589.60;;;16.80;43.42
73566;BME280;61846;52.970;-3.168;2023-08-08T03:02:01;100585.47;;;16.53;43.09
73566;BME280;61846;52.970;-3.168;2023-08-08T03:04:26;100589.27;;;16.39;43.98
73566;BME280;61846;52.970;-3.168;2023-08-08T03:06:52;100589.87;;;16.83;43.38
73566;BME280;61846;52.970;-3.168;2023-08-08T03:09:17;100585.35;;;16.40;43.68
73566;BME280;61846;52.970;-3.168;2023-08-08T03:11:43;100583.22;;;16.44;43.54
73566;BME280;61846;52.970;-3.168;2023-08-08T03:14:08;100581.18;;;16.40;43.39
73566;BME280;61846;52.970;-3.168;2023-08-08T03:16:34;100585.46;;;16.88;42.69
73566;BME280;61846;52.970;-3.168;2023-08-08T03:18:59;100581.14;;;17.07;42.53
73566;BME280;61846;52.970;-3.168;2023-08-08T03:21:25;100580.96;;;16.71;42.96
73566;BME280;61846;52.970;-3.168;2023-08-08T03:23:50;100577.75;;;14.95;45.92
73566;BME280;61846;52.970;-3.168;2023-08-08T03:26:16;100581.60;;;16.35;43.55
73566;BME280;61846;52.970;-3.168;2023-08-08T03:28:41;100579.85;;;16.31;43.80
73566;BME280;61846;52.970;-3.168;2023-08-08T03:31:06;100575.86;;;16.50;43.43
73566;BME280;61846;52.970;-3.168;2023-08-08T03:33:32;100577.98;;;16.62;43.34
73566;BME280;61846;52.970;-3.168;2023-08-08T03:35:57;100577.31;;;16.73;42.88
73566;BME280;61846;52.970;-3.168;2023-08-08T03:38:23;100572.38;;;14.32;47.43
73566;BME280;61846;52.970;-3.168;2023-08-08T03:40:48;100566.98;;;15.88;45.52
73566;BME280;61846;52.970;-3.168;2023-08-08T03:43:14;100568.62;;;16.17;44.47
73566;BME280;61846;52.970;-3.168;2023-08-08T03:45:39;100570.74;;;15.98;44.36
73566;BME280;61846;52.970;-3.168;2023-08-08T03:48:05;100574.35;;;15.02;46.77
73566;BME280;61846;52.970;-3.168;2023-08-08T03:50:30;100574.96;;;15.88;45.39
73566;BME280;61846;52.970;-3.168;2023-08-08T03:52:56;100571.57;;;15.77;44.88
73566;BME280;61846;52.970;-3.168;2023-08-08T03:55:21;100568.54;;;15.34;46.54
73566;BME280;61846;52.970;-3.168;2023-08-08T03:57:47;100572.31;;;15.93;45.73
73566;BME280;61846;52.970;-3.168;2023-08-08T04:00:13;100574.86;;;15.63;46.60
73566;BME280;61846;52.970;-3.168;2023-08-08T04:02:38;100577.01;;;15.99;45.82
73566;BME280;61846;52.970;-3.168;2023-08-08T04:05:04;100576.46;;;15.72;46.18
73566;BME280;61846;52.970;-3.168;2023-08-08T04:07:29;100573.22;;;16.15;45.03
73566;BME280;61846;52.970;-3.168;2023-08-08T04:09:54;100570.87;;;15.77;45.11
73566;BME280;61846;52.970;-3.168;2023-08-08T04:12:20;100570.24;;;16.79;44.50
73566;BME280;61846;52.970;-3.168;2023-08-08T04:14:45;100567.46;;;16.26;44.51
73566;BME280;61846;52.970;-3.168;2023-08-08T04:17:11;100568.38;;;16.36;44.46
73566;BME280;61846;52.970;-3.168;2023-08-08T04:19:36;100565.64;;;16.57;43.88
73566;BME280;61846;52.970;-3.168;2023-08-08T04:22:02;100570.32;;;15.74;45.25
73566;BME280;61846;52.970;-3.168;2023-08-08T04:24:27;100564.47;;;16.38;44.90
73566;BME280;61846;52.970;-3.168;2023-08-08T04:26:53;100568.17;;;15.46;46.40
73566;BME280;61846;52.970;-3.168;2023-08-08T04:29:18;100568.24;;;15.39;46.34
73566;BME280;61846;52.970;-3.168;2023-08-08T04:31:44;100565.82;;;16.07;44.80
73566;BME280;61846;52.970;-3.168;2023-08-08T04:34:09;100566.80;;;16.00;45.22
73566;BME280;61846;52.970;-3.168;2023-08-08T04:36:34;100560.21;;;16.21;45.00
73566;BME280;61846;52.970;-3.168;2023-08-08T04:39:00;100560.17;;;14.77;47.95
73566;BME280;61846;52.970;-3.168;2023-08-08T04:41:26;100566.98;;;14.10;49.56
73566;BME280;61846;52.970;-3.168;2023-08-08T04:43:51;100560.60;;;14.80;48.14
73566;BME280;61846;52.970;-3.168;2023-08-08T04:46:16;100559.41;;;14.76;48.76
73566;BME280;61846;52.970;-3.168;2023-08-08T04:48:42;100559.86;;;15.74;46.84
73566;BME280;61846;52.970;-3.168;2023-08-08T04:51:08;100565.59;;;15.82;46.01
73566;BME280;61846;52.970;-3.168;2023-08-08T04:53:33;100567.81;;;15.64;45.33
73566;BME280;61846;52.970;-3.168;2023-08-08T04:55:59;100574.17;;;15.82;45.84
73566;BME280;61846;52.970;-3.168;2023-08-08T04:58:24;100572.93;;;16.70;44.75
73566;BME280;61846;52.970;-3.168;2023-08-08T05:00:49;100580.88;;;16.82;43.32
73566;BME280;61846;52.970;-3.168;2023-08-08T05:03:15;100580.62;;;16.75;43.36
73566;BME280;61846;52.970;-3.168;2023-08-08T05:05:40;100576.34;;;17.10;42.85
73566;BME280;61846;52.970;-3.168;2023-08-08T05:08:06;100575.45;;;17.17;42.59
73566;BME280;61846;52.970;-3.168;2023-08-08T05:10:31;100573.00;;;16.66;42.94
73566;BME280;61846;52.970;-3.168;2023-08-08T05:12:57;100564.46;;;15.80;44.75
73566;BME280;61846;52.970;-3.168;2023-08-08T05:15:22;100554.60;;;16.81;43.81
73566;BME280;61846;52.970;-3.168;2023-08-08T05:17:48;100550.55;;;16.80;43.10
73566;BME280;61846;52.970;-3.168;2023-08-08T05:20:13;100545.41;;;16.77;43.55
73566;BME280;61846;52.970;-3.168;2023-08-08T05:22:39;100543.18;;;16.91;43.17
73566;BME280;61846;52.970;-3.168;2023-08-08T05:25:05;100545.51;;;15.47;44.73
73566;BME280;61846;52.970;-3.168;2023-08-08T05:27:30;100546.28;;;16.36;44.09
73566;BME280;61846;52.970;-3.168;2023-08-08T05:29:56;100544.67;;;16.27;44.62
73566;BME280;61846;52.970;-3.168;2023-08-08T05:32:21;100544.18;;;15.48;45.71
73566;BME280;61846;52.970;-3.168;2023-08-08T05:34:47;100544.43;;;16.43;44.39
73566;BME280;61846;52.970;-3.168;2023-08-08T05:37:12;100541.47;;;16.51;43.96
73566;BME280;61846;52.970;-3.168;2023-08-08T05:39:38;100545.96;;;15.68;45.79
73566;BME280;61846;52.970;-3.168;2023-08-08T05:42:04;100540.71;;;16.07;45.43
73566;BME280;61846;52.970;-3.168;2023-08-08T05:44:29;100538.05;;;16.29;45.20
73566;BME280;61846;52.970;-3.168;2023-08-08T05:46:55;100529.52;;;16.16;45.28
73566;BME280;61846;52.970;-3.168;2023-08-08T05:49:20;100529.55;;;16.64;44.00
73566;BME280;61846;52.970;-3.168;2023-08-08T05:51:45;100519.23;;;17.30;43.19
73566;BME280;61846;52.970;-3.168;2023-08-08T05:54:11;100516.22;;;16.97;43.39
73566;BME280;61846;52.970;-3.168;2023-08-08T05:56:37;100511.75;;;17.22;42.64
73566;BME280;61846;52.970;-3.168;2023-08-08T05:59:02;100510.64;;;17.15;43.34
73566;BME280;61846;52.970;-3.168;2023-08-08T06:01:28;100513.39;;;17.11;43.17
73566;BME280;61846;52.970;-3.168;2023-08-08T06:03:53;100510.95;;;17.41;42.74
73566;BME280;61846;52.970;-3.168;2023-08-08T06:06:18;100510.06;;;17.17;43.36
73566;BME280;61846;52.970;-3.168;2023-08-08T06:08:44;100512.24;;;17.15;43.27
73566;BME280;61846;52.970;-3.168;2023-08-08T06:11:09;100512.51;;;17.42;43.04
73566;BME280;61846;52.970;-3.168;2023-08-08T06:13:34;100518.32;;;16.68;44.19
73566;BME280;61846;52.970;-3.168;2023-08-08T06:16:00;100513.86;;;16.86;44.23
73566;BME280;61846;52.970;-3.168;2023-08-08T06:18:25;100506.55;;;17.15;43.94
73566;BME280;61846;52.970;-3.168;2023-08-08T06:20:51;100502.76;;;17.17;44.07
73566;BME280;61846;52.970;-3.168;2023-08-08T06:23:16;100505.56;;;17.49;43.54
73566;BME280;61846;52.970;-3.168;2023-08-08T06:25:42;100507.25;;;17.48;43.76
73566;BME280;61846;52.970;-3.168;2023-08-08T06:28:07;100502.80;;;17.55;43.23
73566;BME280;61846;52.970;-3.168;2023-08-08T06:30:33;100506.98;;;17.74;42.73
73566;BME280;61846;52.970;-3.168;2023-08-08T06:33:03;100510.18;;;17.70;42.91
73566;BME280;61846;52.970;-3.168;2023-08-08T06:35:23;100510.36;;;17.71;42.73
73566;BME280;61846;52.970;-3.168;2023-08-08T06:37:49;100514.21;;;17.57;43.27
73566;BME280;61846;52.970;-3.168;2023-08-08T06:40:15;100512.43;;;17.43;43.40
73566;BME280;61846;52.970;-3.168;2023-08-08T06:42:40;100504.35;;;18.02;41.75
73566;BME280;61846;52.970;-3.168;2023-08-08T06:45:06;100499.80;;;18.25;41.75
73566;BME280;61846;52.970;-3.168;2023-08-08T06:47:31;100500.30;;;17.89;41.74
73566;BME280;61846;52.970;-3.168;2023-08-08T06:49:56;100499.32;;;18.67;41.99
73566;BME280;61846;52.970;-3.168;2023-08-08T06:52:21;100500.31;;;18.44;42.34
73566;BME280;61846;52.970;-3.168;2023-08-08T06:54:47;100502.92;;;18.59;41.39
73566;BME280;61846;52.970;-3.168;2023-08-08T06:57:12;100503.38;;;18.28;42.08
73566;BME280;61846;52.970;-3.168;2023-08-08T06:59:38;100508.82;;;19.08;41.37
73566;BME280;61846;52.970;-3.168;2023-08-08T07:02:03;100511.49;;;19.02;41.77
73566;BME280;61846;52.970;-3.168;2023-08-08T07:04:29;100505.38;;;18.69;41.53
73566;BME280;61846;52.970;-3.168;2023-08-08T07:06:55;100502.85;;;18.67;41.76
73566;BME280;61846;52.970;-3.168;2023-08-08T07:09:19;100499.26;;;17.82;42.48
73566;BME280;61846;52.970;-3.168;2023-08-08T07:11:45;100498.21;;;18.94;41.24
73566;BME280;61846;52.970;-3.168;2023-08-08T07:14:10;100500.12;;;19.01;40.88
73566;BME280;61846;52.970;-3.168;2023-08-08T07:16:35;100498.85;;;18.86;40.57
73566;BME280;61846;52.970;-3.168;2023-08-08T07:19:01;100494.63;;;19.17;39.81
73566;BME280;61846;52.970;-3.168;2023-08-08T07:21:26;100490.58;;;19.27;40.23
73566;BME280;61846;52.970;-3.168;2023-08-08T07:23:52;100490.90;;;19.60;39.85
73566;BME280;61846;52.970;-3.168;2023-08-08T07:26:17;100484.39;;;18.96;39.97
73566;BME280;61846;52.970;-3.168;2023-08-08T07:28:42;100486.65;;;19.15;40.08
73566;BME280;61846;52.970;-3.168;2023-08-08T07:31:08;100495.84;;;19.31;40.25
73566;BME280;61846;52.970;-3.168;2023-08-08T07:33:33;100493.51;;;19.52;39.51
73566;BME280;61846;52.970;-3.168;2023-08-08T07:35:59;100487.46;;;19.76;39.40
73566;BME280;61846;52.970;-3.168;2023-08-08T07:38:24;100487.15;;;19.71;38.69
73566;BME280;61846;52.970;-3.168;2023-08-08T07:40:49;100484.27;;;20.14;39.16
73566;BME280;61846;52.970;-3.168;2023-08-08T07:43:15;100482.86;;;19.61;39.53
73566;BME280;61846;52.970;-3.168;2023-08-08T07:45:42;100480.26;;;18.71;41.07
73566;BME280;61846;52.970;-3.168;2023-08-08T07:48:06;100476.38;;;19.79;39.63
73566;BME280;61846;52.970;-3.168;2023-08-08T07:50:31;100471.12;;;19.62;39.37
73566;BME280;61846;52.970;-3.168;2023-08-08T07:52:56;100468.38;;;19.23;39.84
73566;BME280;61846;52.970;-3.168;2023-08-08T07:55:22;100467.57;;;19.55;39.36
73566;BME280;61846;52.970;-3.168;2023-08-08T07:57:47;100473.29;;;19.18;41.12
73566;BME280;61846;52.970;-3.168;2023-08-08T08:00:14;100474.57;;;19.00;40.52
73566;BME280;61846;52.970;-3.168;2023-08-08T08:02:38;100468.70;;;19.68;39.97
73566;BME280;61846;52.970;-3.168;2023-08-08T08:05:04;100463.83;;;19.99;39.94
73566;BME280;61846;52.970;-3.168;2023-08-08T08:07:29;100467.60;;;19.72;39.27
73566;BME280;61846;52.970;-3.168;2023-08-08T08:09:54;100467.89;;;19.13;39.72
73566;BME280;61846;52.970;-3.168;2023-08-08T08:12:19;100471.19;;;19.84;39.54
73566;BME280;61846;52.970;-3.168;2023-08-08T08:14:45;100473.19;;;20.09;38.43
73566;BME280;61846;52.970;-3.168;2023-08-08T08:17:10;100482.00;;;19.55;39.00
73566;BME280;61846;52.970;-3.168;2023-08-08T08:19:36;100485.27;;;19.58;38.60
73566;BME280;61846;52.970;-3.168;2023-08-08T08:22:01;100485.16;;;19.56;38.70
73566;BME280;61846;52.970;-3.168;2023-08-08T08:24:26;100481.53;;;19.64;39.29
73566;BME280;61846;52.970;-3.168;2023-08-08T08:26:51;100483.00;;;19.63;38.71
73566;BME280;61846;52.970;-3.168;2023-08-08T08:29:16;100485.16;;;20.05;38.21
73566;BME280;61846;52.970;-3.168;2023-08-08T08:31:42;100485.07;;;19.72;38.94
73566;BME280;61846;52.970;-3.168;2023-08-08T08:34:07;100482.96;;;20.16;38.20
73566;BME280;61846;52.970;-3.168;2023-08-08T08:36:33;100473.20;;;19.95;38.47
73566;BME280;61846;52.970;-3.168;2023-08-08T08:38:58;100463.68;;;20.55;37.58
73566;BME280;61846;52.970;-3.168;2023-08-08T08:41:27;100463.25;;;20.35;37.80
73566;BME280;61846;52.970;-3.168;2023-08-08T08:43:50;100461.24;;;19.05;39.70
73566;BME280;61846;52.970;-3.168;2023-08-08T08:46:16;100457.92;;;18.97;39.62
73566;BME280;61846;52.970;-3.168;2023-08-08T08:48:40;100456.55;;;19.22;39.23
73566;BME280;61846;52.970;-3.168;2023-08-08T08:51:05;100455.48;;;20.23;38.20
73566;BME280;61846;52.970;-3.168;2023-08-08T08:53:30;100455.63;;;19.65;39.44
73566;BME280;61846;52.970;-3.168;2023-08-08T08:55:56;100456.92;;;19.69;39.29
73566;BME280;61846;52.970;-3.168;2023-08-08T08:58:21;100455.83;;;19.22;39.25
73566;BME280;61846;52.970;-3.168;2023-08-08T09:00:48;100457.12;;;19.91;38.39
73566;BME280;61846;52.970;-3.168;2023-08-08T09:05:39;100449.35;;;20.59;37.45
73566;BME280;61846;52.970;-3.168;2023-08-08T09:08:03;100450.67;;;20.69;36.73
73566;BME280;61846;52.970;-3.168;2023-08-08T09:10:30;100448.47;;;21.10;36.00
73566;BME280;61846;52.970;-3.168;2023-08-08T09:12:54;100443.84;;;21.02;36.04
73566;BME280;61846;52.970;-3.168;2023-08-08T09:15:19;100444.43;;;20.43;36.51
73566;BME280;61846;52.970;-3.168;2023-08-08T09:17:44;100441.30;;;20.73;36.65
73566;BME280;61846;52.970;-3.168;2023-08-08T09:20:10;100439.44;;;20.24;36.56
73566;BME280;61846;52.970;-3.168;2023-08-08T09:22:35;100438.10;;;20.58;36.42
73566;BME280;61846;52.970;-3.168;2023-08-08T09:25:01;100441.48;;;20.19;35.85
73566;BME280;61846;52.970;-3.168;2023-08-08T09:27:29;100448.17;;;20.53;35.26
73566;BME280;61846;52.970;-3.168;2023-08-08T09:29:51;100443.44;;;21.02;34.44
73566;BME280;61846;52.970;-3.168;2023-08-08T09:32:18;100431.19;;;21.28;35.23
73566;BME280;61846;52.970;-3.168;2023-08-08T09:34:42;100424.66;;;21.84;34.23
73566;BME280;61846;52.970;-3.168;2023-08-08T09:37:07;100433.61;;;21.52;33.80
73566;BME280;61846;52.970;-3.168;2023-08-08T09:39:32;100442.24;;;21.72;34.17
73566;BME280;61846;52.970;-3.168;2023-08-08T09:41:58;100456.44;;;21.16;32.77
73566;BME280;61846;52.970;-3.168;2023-08-08T09:44:23;100462.36;;;21.28;35.58
73566;BME280;61846;52.970;-3.168;2023-08-08T09:46:50;100463.22;;;21.28;34.90
73566;BME280;61846;52.970;-3.168;2023-08-08T09:49:14;100458.28;;;21.63;35.28
73566;BME280;61846;52.970;-3.168;2023-08-08T09:51:39;100443.74;;;21.78;33.43
73566;BME280;61846;52.970;-3.168;2023-08-08T09:54:05;100441.08;;;21.70;34.41
73566;BME280;61846;52.970;-3.168;2023-08-08T09:56:31;100444.57;;;22.07;33.98
73566;BME280;61846;52.970;-3.168;2023-08-08T09:58:55;100449.74;;;20.81;35.97
73566;BME280;61846;52.970;-3.168;2023-08-08T10:01:21;100446.44;;;21.44;35.40
73566;BME280;61846;52.970;-3.168;2023-08-08T10:03:46;100448.43;;;21.47;36.27
73566;BME280;61846;52.970;-3.168;2023-08-08T10:06:12;100448.77;;;21.27;36.03
73566;BME280;61846;52.970;-3.168;2023-08-08T10:08:36;100440.34;;;18.71;38.48
73566;BME280;61846;52.970;-3.168;2023-08-08T10:11:02;100432.45;;;19.89;37.70
73566;BME280;61846;52.970;-3.168;2023-08-08T10:13:27;100427.48;;;20.90;37.57
73566;BME280;61846;52.970;-3.168;2023-08-08T10:15:54;100418.57;;;21.67;37.13
73566;BME280;61846;52.970;-3.168;2023-08-08T10:18:20;100416.53;;;22.06;35.77
73566;BME280;61846;52.970;-3.168;2023-08-08T10:20:46;100419.02;;;21.97;35.74
73566;BME280;61846;52.970;-3.168;2023-08-08T10:23:09;100420.58;;;22.17;35.13
73566;BME280;61846;52.970;-3.168;2023-08-08T10:25:34;100423.79;;;21.86;35.18
73566;BME280;61846;52.970;-3.168;2023-08-08T10:28:05;100427.57;;;21.99;34.68
73566;BME280;61846;52.970;-3.168;2023-08-08T10:30:24;100433.14;;;21.80;34.45
73566;BME280;61846;52.970;-3.168;2023-08-08T10:32:50;100430.44;;;21.76;34.11
73566;BME280;61846;52.970;-3.168;2023-08-08T10:35:15;100429.37;;;22.31;33.38
73566;BME280;61846;52.970;-3.168;2023-08-08T10:40:07;100425.15;;;21.45;34.17
73566;BME280;61846;52.970;-3.168;2023-08-08T10:42:31;100435.55;;;19.68;36.84
73566;BME280;61846;52.970;-3.168;2023-08-08T10:44:58;100439.19;;;20.03;36.29
73566;BME280;61846;52.970;-3.168;2023-08-08T10:47:22;100432.75;;;21.35;33.97
73566;BME280;61846;52.970;-3.168;2023-08-08T10:49:58;100428.42;;;22.22;34.63
73566;BME280;61846;52.970;-3.168;2023-08-08T10:52:14;100429.29;;;21.11;34.69
73566;BME280;61846;52.970;-3.168;2023-08-08T10:54:37;100426.77;;;21.66;35.23
73566;BME280;61846;52.970;-3.168;2023-08-08T10:57:03;100430.36;;;21.77;34.36
73566;BME280;61846;52.970;-3.168;2023-08-08T10:59:36;100435.79;;;22.16;33.98
73566;BME280;61846;52.970;-3.168;2023-08-08T11:01:54;100433.60;;;22.38;32.91
73566;BME280;61846;52.970;-3.168;2023-08-08T11:04:21;100430.49;;;22.05;33.21
73566;BME280;61846;52.970;-3.168;2023-08-08T11:06:45;100427.31;;;22.14;33.92
73566;BME280;61846;52.970;-3.168;2023-08-08T11:09:10;100419.17;;;22.97;33.54
73566;BME280;61846;52.970;-3.168;2023-08-08T11:11:37;100420.26;;;22.84;32.98
73566;BME280;61846;52.970;-3.168;2023-08-08T11:16:25;100418.01;;;21.58;34.02
73566;BME280;61846;52.970;-3.168;2023-08-08T11:18:55;100416.02;;;21.29;34.54
73566;BME280;61846;52.970;-3.168;2023-08-08T11:21:16;100414.44;;;22.37;33.12
73566;BME280;61846;52.970;-3.168;2023-08-08T11:23:46;100414.11;;;21.98;34.10
73566;BME280;61846;52.970;-3.168;2023-08-08T11:26:07;100412.81;;;22.91;32.55
73566;BME280;61846;52.970;-3.168;2023-08-08T11:28:32;100410.88;;;22.87;32.07
73566;BME280;61846;52.970;-3.168;2023-08-08T11:30:57;100409.16;;;23.37;31.77
73566;BME280;61846;52.970;-3.168;2023-08-08T11:33:23;100408.44;;;23.25;31.36
73566;BME280;61846;52.970;-3.168;2023-08-08T11:35:48;100407.74;;;23.33;31.18
73566;BME280;61846;52.970;-3.168;2023-08-08T11:38:14;100404.24;;;23.31;31.30
73566;BME280;61846;52.970;-3.168;2023-08-08T11:40:39;100401.01;;;23.11;32.34
73566;BME280;61846;52.970;-3.168;2023-08-08T11:43:04;100396.87;;;23.12;30.98
73566;BME280;61846;52.970;-3.168;2023-08-08T11:45:31;100394.35;;;23.26;31.77
73566;BME280;61846;52.970;-3.168;2023-08-08T11:47:55;100387.75;;;23.36;31.53
73566;BME280;61846;52.970;-3.168;2023-08-08T11:50:21;100388.09;;;23.54;31.35
73566;BME280;61846;52.970;-3.168;2023-08-08T11:52:46;100388.58;;;23.49;32.29
73566;BME280;61846;52.970;-3.168;2023-08-08T11:55:11;100392.23;;;23.79;32.44
73566;BME280;61846;52.970;-3.168;2023-08-08T11:57:37;100393.47;;;23.38;31.92
73566;BME280;61846;52.970;-3.168;2023-08-08T12:00:03;100395.39;;;23.50;31.37
73566;BME280;61846;52.970;-3.168;2023-08-08T12:02:27;100399.86;;;23.60;32.00
73566;BME280;61846;52.970;-3.168;2023-08-08T12:04:52;100395.44;;;23.49;31.66
73566;BME280;61846;52.970;-3.168;2023-08-08T12:07:18;100391.71;;;22.97;30.32
73566;BME280;61846;52.970;-3.168;2023-08-08T12:09:43;100391.07;;;23.15;31.17
73566;BME280;61846;52.970;-3.168;2023-08-08T12:12:09;100395.46;;;23.46;31.84
73566;BME280;61846;52.970;-3.168;2023-08-08T12:14:37;100396.42;;;23.05;32.21
73566;BME280;61846;52.970;-3.168;2023-08-08T12:16:59;100396.04;;;22.99;32.13
73566;BME280;61846;52.970;-3.168;2023-08-08T12:19:25;100402.33;;;21.67;33.96
73566;BME280;61846;52.970;-3.168;2023-08-08T12:21:50;100399.73;;;21.55;33.53
73566;BME280;61846;52.970;-3.168;2023-08-08T12:24:15;100395.63;;;21.47;34.95
73566;BME280;61846;52.970;-3.168;2023-08-08T12:26:40;100395.74;;;21.42;34.58
73566;BME280;61846;52.970;-3.168;2023-08-08T12:29:06;100393.97;;;21.71;34.86
73566;BME280;61846;52.970;-3.168;2023-08-08T12:31:31;100396.20;;;22.14;33.60
73566;BME280;61846;52.970;-3.168;2023-08-08T12:33:56;100401.33;;;22.31;35.01
73566;BME280;61846;52.970;-3.168;2023-08-08T12:36:22;100404.62;;;22.72;33.57